METAR Data
IDs: Format: Raw Decoded Include TAF

Data at: 2242 UTC 02 Aug 2021

EGYD 022150Z AUTO 19004KT 9999 // SCT090/// SCT180/// 13/10 Q1014